sensor_id;sensor_type;location;lat;lon;timestamp;temperature;humidity
7206;DHT22;3644;53.480;10.004;2023-08-17T00:00:25;20.30;99.90
7206;DHT22;3644;53.480;10.004;2023-08-17T00:02:51;20.10;99.90
7206;DHT22;3644;53.480;10.004;2023-08-17T00:05:16;20.00;99.90
7206;DHT22;3644;53.480;10.004;2023-08-17T00:07:42;19.60;99.90
7206;DHT22;3644;53.480;10.004;2023-08-17T00:10:07;19.70;99.90
7206;DHT22;3644;53.480;10.004;2023-08-17T00:12:33;19.60;99.90
7206;DHT22;3644;53.480;10.004;2023-08-17T00:14:58;19.70;99.90
7206;DHT22;3644;53.480;10.004;2023-08-17T00:17:24;19.70;99.90
7206;DHT22;3644;53.480;10.004;2023-08-17T00:19:49;19.80;99.90
7206;DHT22;3644;53.480;10.004;2023-08-17T00:22:15;19.70;99.90
7206;DHT22;3644;53.480;10.004;2023-08-17T00:24:42;19.70;99.90
7206;DHT22;3644;53.480;10.004;2023-08-17T00:27:09;19.60;99.90
7206;DHT22;3644;53.480;10.004;2023-08-17T00:29:35;19.60;99.90
7206;DHT22;3644;53.480;10.004;2023-08-17T00:32:01;19.70;99.90
7206;DHT22;3644;53.480;10.004;2023-08-17T00:34:27;19.70;99.90
7206;DHT22;3644;53.480;10.004;2023-08-17T00:36:52;19.60;99.90
7206;DHT22;3644;53.480;10.004;2023-08-17T00:39:18;19.50;99.90
7206;DHT22;3644;53.480;10.004;2023-08-17T00:41:45;19.80;99.90
7206;DHT22;3644;53.480;10.004;2023-08-17T00:44:11;19.70;99.90
7206;DHT22;3644;53.480;10.004;2023-08-17T00:46:37;19.70;99.90
7206;DHT22;3644;53.480;10.004;2023-08-17T00:49:03;19.80;99.90
7206;DHT22;3644;53.480;10.004;2023-08-17T00:51:29;19.70;99.90
7206;DHT22;3644;53.480;10.004;2023-08-17T00:53:57;19.90;99.90
7206;DHT22;3644;53.480;10.004;2023-08-17T00:56:23;19.60;99.90
7206;DHT22;3644;53.480;10.004;2023-08-17T00:58:49;19.70;99.90
7206;DHT22;3644;53.480;10.004;2023-08-17T01:01:16;19.70;99.90
7206;DHT22;3644;53.480;10.004;2023-08-17T01:03:42;19.70;99.90
7206;DHT22;3644;53.480;10.004;2023-08-17T01:06:08;19.90;99.90
7206;DHT22;3644;53.480;10.004;2023-08-17T01:08:34;20.00;99.90
7206;DHT22;3644;53.480;10.004;2023-08-17T01:11:20;19.80;99.90
7206;DHT22;3644;53.480;10.004;2023-08-17T01:14:00;20.00;99.90
7206;DHT22;3644;53.480;10.004;2023-08-17T01:16:33;20.00;99.90
7206;DHT22;3644;53.480;10.004;2023-08-17T01:19:00;20.10;99.90
7206;DHT22;3644;53.480;10.004;2023-08-17T01:21:35;19.80;99.90
7206;DHT22;3644;53.480;10.004;2023-08-17T01:24:03;19.60;99.90
7206;DHT22;3644;53.480;10.004;2023-08-17T01:26:29;19.60;99.90
7206;DHT22;3644;53.480;10.004;2023-08-17T01:28:55;19.80;99.90
7206;DHT22;3644;53.480;10.004;2023-08-17T01:31:31;20.00;99.90
7206;DHT22;3644;53.480;10.004;2023-08-17T01:34:07;19.80;99.90
7206;DHT22;3644;53.480;10.004;2023-08-17T01:36:37;19.90;99.90
7206;DHT22;3644;53.480;10.004;2023-08-17T01:39:04;20.00;99.90
7206;DHT22;3644;53.480;10.004;2023-08-17T01:41:30;20.10;99.90
7206;DHT22;3644;53.480;10.004;2023-08-17T01:43:57;19.70;99.90
7206;DHT22;3644;53.480;10.004;2023-08-17T01:46:25;19.60;99.90
7206;DHT22;3644;53.480;10.004;2023-08-17T01:48:53;19.60;99.90
7206;DHT22;3644;53.480;10.004;2023-08-17T01:51:20;19.50;99.90
7206;DHT22;3644;53.480;10.004;2023-08-17T01:53:46;19.30;99.90
7206;DHT22;3644;53.480;10.004;2023-08-17T01:56:11;19.10;99.90
7206;DHT22;3644;53.480;10.004;2023-08-17T01:58:37;19.10;99.90
7206;DHT22;3644;53.480;10.004;2023-08-17T02:01:03;19.10;99.90
7206;DHT22;3644;53.480;10.004;2023-08-17T02:03:28;19.20;99.90
7206;DHT22;3644;53.480;10.004;2023-08-17T02:05:56;19.20;99.90
7206;DHT22;3644;53.480;10.004;2023-08-17T02:08:21;19.30;99.90
7206;DHT22;3644;53.480;10.004;2023-08-17T02:10:47;19.40;99.90
7206;DHT22;3644;53.480;10.004;2023-08-17T02:13:12;19.70;99.90
7206;DHT22;3644;53.480;10.004;2023-08-17T02:15:39;19.60;99.90
7206;DHT22;3644;53.480;10.004;2023-08-17T02:18:05;19.50;99.90
7206;DHT22;3644;53.480;10.004;2023-08-17T02:20:31;19.30;99.90
7206;DHT22;3644;53.480;10.004;2023-08-17T02:22:56;19.40;99.90
7206;DHT22;3644;53.480;10.004;2023-08-17T02:25:22;19.50;99.90
7206;DHT22;3644;53.480;10.004;2023-08-17T02:27:47;19.70;99.90
7206;DHT22;3644;53.480;10.004;2023-08-17T02:30:13;19.40;99.90
7206;DHT22;3644;53.480;10.004;2023-08-17T02:32:39;19.40;99.90
7206;DHT22;3644;53.480;10.004;2023-08-17T02:35:05;19.50;99.90
7206;DHT22;3644;53.480;10.004;2023-08-17T02:37:30;19.40;99.90
7206;DHT22;3644;53.480;10.004;2023-08-17T02:39:56;19.40;99.90
7206;DHT22;3644;53.480;10.004;2023-08-17T02:42:22;19.10;99.90
7206;DHT22;3644;53.480;10.004;2023-08-17T02:44:48;19.10;99.90
7206;DHT22;3644;53.480;10.004;2023-08-17T02:47:13;19.30;99.90
7206;DHT22;3644;53.480;10.004;2023-08-17T02:49:39;19.30;99.90
7206;DHT22;3644;53.480;10.004;2023-08-17T02:52:04;19.10;99.90
7206;DHT22;3644;53.480;10.004;2023-08-17T02:54:30;19.30;99.90
7206;DHT22;3644;53.480;10.004;2023-08-17T02:56:57;19.50;99.90
7206;DHT22;3644;53.480;10.004;2023-08-17T02:59:22;19.60;99.90
7206;DHT22;3644;53.480;10.004;2023-08-17T03:01:48;19.90;99.90
7206;DHT22;3644;53.480;10.004;2023-08-17T03:04:13;19.70;99.90
7206;DHT22;3644;53.480;10.004;2023-08-17T03:06:39;19.80;99.90
7206;DHT22;3644;53.480;10.004;2023-08-17T03:09:05;20.00;99.90
7206;DHT22;3644;53.480;10.004;2023-08-17T03:11:30;19.90;99.90
7206;DHT22;3644;53.480;10.004;2023-08-17T03:13:56;19.90;99.90
7206;DHT22;3644;53.480;10.004;2023-08-17T03:16:26;19.60;99.90
7206;DHT22;3644;53.480;10.004;2023-08-17T03:18:52;19.60;99.90
7206;DHT22;3644;53.480;10.004;2023-08-17T03:21:17;19.70;99.90
7206;DHT22;3644;53.480;10.004;2023-08-17T03:23:44;19.80;99.90
7206;DHT22;3644;53.480;10.004;2023-08-17T03:26:09;19.90;99.90
7206;DHT22;3644;53.480;10.004;2023-08-17T03:28:35;19.90;99.90
7206;DHT22;3644;53.480;10.004;2023-08-17T03:31:01;19.90;99.90
7206;DHT22;3644;53.480;10.004;2023-08-17T03:33:28;20.00;99.90
7206;DHT22;3644;53.480;10.004;2023-08-17T03:35:53;20.00;99.90
7206;DHT22;3644;53.480;10.004;2023-08-17T03:38:19;19.90;99.90
7206;DHT22;3644;53.480;10.004;2023-08-17T03:40:45;19.70;99.90
7206;DHT22;3644;53.480;10.004;2023-08-17T03:43:11;19.50;99.90
7206;DHT22;3644;53.480;10.004;2023-08-17T03:45:36;19.30;99.90
7206;DHT22;3644;53.480;10.004;2023-08-17T03:48:02;19.50;99.90
7206;DHT22;3644;53.480;10.004;2023-08-17T03:50:28;19.60;99.90
7206;DHT22;3644;53.480;10.004;2023-08-17T03:52:53;19.40;99.90
7206;DHT22;3644;53.480;10.004;2023-08-17T03:55:19;19.40;99.90
7206;DHT22;3644;53.480;10.004;2023-08-17T03:57:44;19.20;99.90
7206;DHT22;3644;53.480;10.004;2023-08-17T04:00:10;19.20;99.90
7206;DHT22;3644;53.480;10.004;2023-08-17T04:02:36;19.40;99.90
7206;DHT22;3644;53.480;10.004;2023-08-17T04:05:02;19.30;99.90
7206;DHT22;3644;53.480;10.004;2023-08-17T04:07:28;19.10;99.90
7206;DHT22;3644;53.480;10.004;2023-08-17T04:09:53;19.00;99.90
7206;DHT22;3644;53.480;10.004;2023-08-17T04:12:19;19.00;99.90
7206;DHT22;3644;53.480;10.004;2023-08-17T04:14:44;19.10;99.90
7206;DHT22;3644;53.480;10.004;2023-08-17T04:17:11;19.10;99.90
7206;DHT22;3644;53.480;10.004;2023-08-17T04:19:36;19.10;99.90
7206;DHT22;3644;53.480;10.004;2023-08-17T04:22:02;18.90;99.90
7206;DHT22;3644;53.480;10.004;2023-08-17T04:24:27;19.00;99.90
7206;DHT22;3644;53.480;10.004;2023-08-17T04:26:53;18.90;99.90
7206;DHT22;3644;53.480;10.004;2023-08-17T04:29:18;18.90;99.90
7206;DHT22;3644;53.480;10.004;2023-08-17T04:31:44;18.70;99.90
7206;DHT22;3644;53.480;10.004;2023-08-17T04:34:11;18.60;99.90
7206;DHT22;3644;53.480;10.004;2023-08-17T04:36:36;18.70;99.90
7206;DHT22;3644;53.480;10.004;2023-08-17T04:39:02;18.90;99.90
7206;DHT22;3644;53.480;10.004;2023-08-17T04:41:29;18.80;99.90
7206;DHT22;3644;53.480;10.004;2023-08-17T04:43:55;18.60;99.90
7206;DHT22;3644;53.480;10.004;2023-08-17T04:46:20;18.90;99.90
7206;DHT22;3644;53.480;10.004;2023-08-17T04:48:46;19.00;99.90
7206;DHT22;3644;53.480;10.004;2023-08-17T04:51:12;19.30;99.90
7206;DHT22;3644;53.480;10.004;2023-08-17T04:53:37;19.20;99.90
7206;DHT22;3644;53.480;10.004;2023-08-17T04:56:03;19.10;99.90
7206;DHT22;3644;53.480;10.004;2023-08-17T04:58:29;19.00;99.90
7206;DHT22;3644;53.480;10.004;2023-08-17T05:00:55;19.10;99.90
7206;DHT22;3644;53.480;10.004;2023-08-17T05:03:20;19.10;99.90
7206;DHT22;3644;53.480;10.004;2023-08-17T05:05:46;19.00;99.90
7206;DHT22;3644;53.480;10.004;2023-08-17T05:08:11;19.20;99.90
7206;DHT22;3644;53.480;10.004;2023-08-17T05:10:37;19.30;99.90
7206;DHT22;3644;53.480;10.004;2023-08-17T05:13:02;19.10;99.90
7206;DHT22;3644;53.480;10.004;2023-08-17T05:15:28;19.30;99.90
7206;DHT22;3644;53.480;10.004;2023-08-17T05:17:54;19.40;99.90
7206;DHT22;3644;53.480;10.004;2023-08-17T05:20:19;19.60;99.90
7206;DHT22;3644;53.480;10.004;2023-08-17T05:22:46;19.70;99.90
7206;DHT22;3644;53.480;10.004;2023-08-17T05:25:12;19.70;99.90
7206;DHT22;3644;53.480;10.004;2023-08-17T05:27:37;19.80;99.90
7206;DHT22;3644;53.480;10.004;2023-08-17T05:30:03;19.80;99.90
7206;DHT22;3644;53.480;10.004;2023-08-17T05:32:29;19.70;99.90
7206;DHT22;3644;53.480;10.004;2023-08-17T05:34:54;19.80;99.90
7206;DHT22;3644;53.480;10.004;2023-08-17T05:37:20;19.80;99.90
7206;DHT22;3644;53.480;10.004;2023-08-17T05:39:45;19.70;99.90
7206;DHT22;3644;53.480;10.004;2023-08-17T05:42:11;19.70;99.90
7206;DHT22;3644;53.480;10.004;2023-08-17T05:44:36;19.60;99.90
7206;DHT22;3644;53.480;10.004;2023-08-17T05:47:02;19.70;99.90
7206;DHT22;3644;53.480;10.004;2023-08-17T05:49:27;19.60;99.90
7206;DHT22;3644;53.480;10.004;2023-08-17T05:51:53;19.50;99.90
7206;DHT22;3644;53.480;10.004;2023-08-17T05:54:19;19.70;99.90
7206;DHT22;3644;53.480;10.004;2023-08-17T05:56:44;19.60;99.90
7206;DHT22;3644;53.480;10.004;2023-08-17T05:59:12;19.50;99.90
7206;DHT22;3644;53.480;10.004;2023-08-17T06:01:38;19.40;99.90
7206;DHT22;3644;53.480;10.004;2023-08-17T06:04:04;19.30;99.90
7206;DHT22;3644;53.480;10.004;2023-08-17T06:06:30;19.30;99.90
7206;DHT22;3644;53.480;10.004;2023-08-17T06:08:55;19.00;99.90
7206;DHT22;3644;53.480;10.004;2023-08-17T06:11:21;19.00;99.90
7206;DHT22;3644;53.480;10.004;2023-08-17T06:13:46;19.20;99.90
7206;DHT22;3644;53.480;10.004;2023-08-17T06:16:12;19.30;99.90
7206;DHT22;3644;53.480;10.004;2023-08-17T06:18:38;19.30;99.90
7206;DHT22;3644;53.480;10.004;2023-08-17T06:21:04;19.00;99.90
7206;DHT22;3644;53.480;10.004;2023-08-17T06:23:29;18.90;99.90
7206;DHT22;3644;53.480;10.004;2023-08-17T06:25:58;18.70;99.90
7206;DHT22;3644;53.480;10.004;2023-08-17T06:28:25;18.70;99.90
7206;DHT22;3644;53.480;10.004;2023-08-17T06:30:54;18.60;99.90
7206;DHT22;3644;53.480;10.004;2023-08-17T06:33:21;18.80;99.90
7206;DHT22;3644;53.480;10.004;2023-08-17T06:35:46;18.40;99.90
7206;DHT22;3644;53.480;10.004;2023-08-17T06:38:12;18.50;99.90
7206;DHT22;3644;53.480;10.004;2023-08-17T06:40:37;18.60;99.90
7206;DHT22;3644;53.480;10.004;2023-08-17T06:43:03;18.40;99.90
7206;DHT22;3644;53.480;10.004;2023-08-17T06:45:30;18.30;99.90
7206;DHT22;3644;53.480;10.004;2023-08-17T06:47:56;18.20;99.90
7206;DHT22;3644;53.480;10.004;2023-08-17T06:50:21;18.20;99.90
7206;DHT22;3644;53.480;10.004;2023-08-17T06:52:47;18.30;99.90
7206;DHT22;3644;53.480;10.004;2023-08-17T06:55:12;18.40;99.90
7206;DHT22;3644;53.480;10.004;2023-08-17T06:57:38;18.40;99.90
7206;DHT22;3644;53.480;10.004;2023-08-17T07:00:04;18.40;99.90
7206;DHT22;3644;53.480;10.004;2023-08-17T07:02:33;18.60;99.90
7206;DHT22;3644;53.480;10.004;2023-08-17T07:05:00;18.60;99.90
7206;DHT22;3644;53.480;10.004;2023-08-17T07:07:25;18.50;99.90
7206;DHT22;3644;53.480;10.004;2023-08-17T07:09:51;18.50;99.90
7206;DHT22;3644;53.480;10.004;2023-08-17T07:12:16;18.50;99.90
7206;DHT22;3644;53.480;10.004;2023-08-17T07:14:42;18.20;99.90
7206;DHT22;3644;53.480;10.004;2023-08-17T07:17:07;18.40;99.90
7206;DHT22;3644;53.480;10.004;2023-08-17T07:19:33;18.60;99.90
7206;DHT22;3644;53.480;10.004;2023-08-17T07:21:58;18.80;99.90
7206;DHT22;3644;53.480;10.004;2023-08-17T07:24:24;18.70;99.90
7206;DHT22;3644;53.480;10.004;2023-08-17T07:26:49;18.60;99.90
7206;DHT22;3644;53.480;10.004;2023-08-17T07:29:15;18.70;99.90
7206;DHT22;3644;53.480;10.004;2023-08-17T07:31:40;18.60;99.90
7206;DHT22;3644;53.480;10.004;2023-08-17T07:34:06;18.50;99.90
7206;DHT22;3644;53.480;10.004;2023-08-17T07:36:32;18.70;99.90
7206;DHT22;3644;53.480;10.004;2023-08-17T07:38:58;18.20;99.90
7206;DHT22;3644;53.480;10.004;2023-08-17T07:41:24;18.10;99.90
7206;DHT22;3644;53.480;10.004;2023-08-17T07:43:49;18.20;99.90
7206;DHT22;3644;53.480;10.004;2023-08-17T07:46:15;18.30;99.90
7206;DHT22;3644;53.480;10.004;2023-08-17T07:48:40;18.50;99.90
7206;DHT22;3644;53.480;10.004;2023-08-17T07:51:06;18.80;99.90
7206;DHT22;3644;53.480;10.004;2023-08-17T07:53:32;18.90;99.90
7206;DHT22;3644;53.480;10.004;2023-08-17T07:55:57;18.80;99.90
7206;DHT22;3644;53.480;10.004;2023-08-17T07:58:23;18.70;99.90
7206;DHT22;3644;53.480;10.004;2023-08-17T08:00:48;18.20;99.90
7206;DHT22;3644;53.480;10.004;2023-08-17T08:03:14;18.10;99.90
7206;DHT22;3644;53.480;10.004;2023-08-17T08:05:40;18.00;99.90
7206;DHT22;3644;53.480;10.004;2023-08-17T08:08:06;18.10;99.90
7206;DHT22;3644;53.480;10.004;2023-08-17T08:10:31;18.00;99.90
7206;DHT22;3644;53.480;10.004;2023-08-17T08:12:57;18.10;99.90
7206;DHT22;3644;53.480;10.004;2023-08-17T08:15:22;18.10;99.90
7206;DHT22;3644;53.480;10.004;2023-08-17T08:17:48;18.10;99.90
7206;DHT22;3644;53.480;10.004;2023-08-17T08:20:13;18.30;99.90
7206;DHT22;3644;53.480;10.004;2023-08-17T08:22:39;18.30;99.90
7206;DHT22;3644;53.480;10.004;2023-08-17T08:25:04;18.10;99.90
7206;DHT22;3644;53.480;10.004;2023-08-17T08:27:30;18.00;99.90
7206;DHT22;3644;53.480;10.004;2023-08-17T08:29:55;17.70;99.90
7206;DHT22;3644;53.480;10.004;2023-08-17T08:32:21;17.90;99.90
7206;DHT22;3644;53.480;10.004;2023-08-17T08:34:46;17.90;99.90
7206;DHT22;3644;53.480;10.004;2023-08-17T08:37:12;17.90;99.90
7206;DHT22;3644;53.480;10.004;2023-08-17T08:39:50;17.90;99.90
7206;DHT22;3644;53.480;10.004;2023-08-17T08:42:17;17.80;99.90
7206;DHT22;3644;53.480;10.004;2023-08-17T08:44:43;17.50;99.90
7206;DHT22;3644;53.480;10.004;2023-08-17T08:47:09;17.80;99.90
7206;DHT22;3644;53.480;10.004;2023-08-17T08:49:39;17.60;99.90
7206;DHT22;3644;53.480;10.004;2023-08-17T08:52:07;17.50;99.90
7206;DHT22;3644;53.480;10.004;2023-08-17T08:54:35;17.60;99.90
7206;DHT22;3644;53.480;10.004;2023-08-17T08:57:08;17.50;99.90
7206;DHT22;3644;53.480;10.004;2023-08-17T08:59:34;17.90;99.90
7206;DHT22;3644;53.480;10.004;2023-08-17T09:02:00;17.60;99.90
7206;DHT22;3644;53.480;10.004;2023-08-17T09:04:27;17.80;99.90
7206;DHT22;3644;53.480;10.004;2023-08-17T09:06:53;17.60;99.90
7206;DHT22;3644;53.480;10.004;2023-08-17T09:09:21;17.60;99.90
7206;DHT22;3644;53.480;10.004;2023-08-17T09:11:46;17.50;99.90
7206;DHT22;3644;53.480;10.004;2023-08-17T09:14:12;17.60;99.90
7206;DHT22;3644;53.480;10.004;2023-08-17T09:16:38;17.70;99.90
7206;DHT22;3644;53.480;10.004;2023-08-17T09:19:04;17.70;99.90
7206;DHT22;3644;53.480;10.004;2023-08-17T09:21:31;17.90;99.90
7206;DHT22;3644;53.480;10.004;2023-08-17T09:23:57;18.20;99.90
7206;DHT22;3644;53.480;10.004;2023-08-17T09:26:23;18.50;99.90
7206;DHT22;3644;53.480;10.004;2023-08-17T09:28:52;18.50;99.90
7206;DHT22;3644;53.480;10.004;2023-08-17T09:31:23;18.60;99.90
7206;DHT22;3644;53.480;10.004;2023-08-17T09:33:50;18.30;99.90
7206;DHT22;3644;53.480;10.004;2023-08-17T09:36:20;18.00;99.90
7206;DHT22;3644;53.480;10.004;2023-08-17T09:38:48;18.10;99.90
7206;DHT22;3644;53.480;10.004;2023-08-17T09:41:14;18.00;99.90
7206;DHT22;3644;53.480;10.004;2023-08-17T09:43:40;17.80;99.90
7206;DHT22;3644;53.480;10.004;2023-08-17T09:46:06;18.00;99.90
7206;DHT22;3644;53.480;10.004;2023-08-17T09:48:33;17.90;99.90
7206;DHT22;3644;53.480;10.004;2023-08-17T09:50:58;17.80;99.90
7206;DHT22;3644;53.480;10.004;2023-08-17T09:53:24;17.80;99.90
7206;DHT22;3644;53.480;10.004;2023-08-17T09:55:50;17.70;99.90
7206;DHT22;3644;53.480;10.004;2023-08-17T09:58:16;17.70;99.90
7206;DHT22;3644;53.480;10.004;2023-08-17T10:00:44;18.00;99.90
7206;DHT22;3644;53.480;10.004;2023-08-17T10:03:13;17.90;99.90
7206;DHT22;3644;53.480;10.004;2023-08-17T10:05:40;17.70;99.90
7206;DHT22;3644;53.480;10.004;2023-08-17T10:08:07;17.80;99.90
7206;DHT22;3644;53.480;10.004;2023-08-17T10:10:38;17.90;99.90
7206;DHT22;3644;53.480;10.004;2023-08-17T10:13:31;18.10;99.90
7206;DHT22;3644;53.480;10.004;2023-08-17T10:16:08;17.80;99.90
7206;DHT22;3644;53.480;10.004;2023-08-17T10:21:28;17.90;99.90
7206;DHT22;3644;53.480;10.004;2023-08-17T10:23:55;17.70;99.90
7206;DHT22;3644;53.480;10.004;2023-08-17T10:26:22;17.60;99.90
7206;DHT22;3644;53.480;10.004;2023-08-17T10:28:48;17.70;99.90
7206;DHT22;3644;53.480;10.004;2023-08-17T10:31:14;17.70;99.90
7206;DHT22;3644;53.480;10.004;2023-08-17T10:33:40;17.50;99.90
7206;DHT22;3644;53.480;10.004;2023-08-17T10:36:09;17.50;99.90
7206;DHT22;3644;53.480;10.004;2023-08-17T10:38:34;17.50;99.90
7206;DHT22;3644;53.480;10.004;2023-08-17T10:41:18;17.20;99.90
7206;DHT22;3644;53.480;10.004;2023-08-17T10:43:59;17.10;99.90
7206;DHT22;3644;53.480;10.004;2023-08-17T10:46:37;17.10;99.90
7206;DHT22;3644;53.480;10.004;2023-08-17T10:49:05;17.20;99.90
7206;DHT22;3644;53.480;10.004;2023-08-17T10:51:32;17.20;99.90
7206;DHT22;3644;53.480;10.004;2023-08-17T10:53:59;17.50;99.90
7206;DHT22;3644;53.480;10.004;2023-08-17T10:56:27;17.80;99.90
7206;DHT22;3644;53.480;10.004;2023-08-17T10:58:53;18.00;99.90
7206;DHT22;3644;53.480;10.004;2023-08-17T11:01:32;18.30;99.90
7206;DHT22;3644;53.480;10.004;2023-08-17T11:04:16;18.30;99.90
7206;DHT22;3644;53.480;10.004;2023-08-17T11:06:43;18.60;99.90
7206;DHT22;3644;53.480;10.004;2023-08-17T11:09:09;18.70;99.90
7206;DHT22;3644;53.480;10.004;2023-08-17T11:11:35;18.90;99.90
7206;DHT22;3644;53.480;10.004;2023-08-17T11:14:00;19.00;99.90
7206;DHT22;3644;53.480;10.004;2023-08-17T11:16:26;18.80;99.90
7206;DHT22;3644;53.480;10.004;2023-08-17T11:18:51;18.40;99.90
7206;DHT22;3644;53.480;10.004;2023-08-17T11:21:18;18.50;99.90
7206;DHT22;3644;53.480;10.004;2023-08-17T11:23:43;18.70;99.90
7206;DHT22;3644;53.480;10.004;2023-08-17T11:26:09;18.30;99.90
7206;DHT22;3644;53.480;10.004;2023-08-17T11:28:35;18.30;99.90
7206;DHT22;3644;53.480;10.004;2023-08-17T11:31:12;18.40;99.90
7206;DHT22;3644;53.480;10.004;2023-08-17T11:33:39;18.50;99.90
7206;DHT22;3644;53.480;10.004;2023-08-17T11:36:07;18.60;99.90
7206;DHT22;3644;53.480;10.004;2023-08-17T11:38:39;18.40;99.90
7206;DHT22;3644;53.480;10.004;2023-08-17T11:41:06;18.50;99.90
7206;DHT22;3644;53.480;10.004;2023-08-17T11:43:35;18.40;99.90
7206;DHT22;3644;53.480;10.004;2023-08-17T11:46:01;18.40;99.90
7206;DHT22;3644;53.480;10.004;2023-08-17T11:48:28;18.50;99.90
7206;DHT22;3644;53.480;10.004;2023-08-17T11:50:53;18.80;99.90
7206;DHT22;3644;53.480;10.004;2023-08-17T11:53:20;19.10;99.90
7206;DHT22;3644;53.480;10.004;2023-08-17T11:55:46;19.40;99.90
7206;DHT22;3644;53.480;10.004;2023-08-17T11:58:11;19.50;99.90
7206;DHT22;3644;53.480;10.004;2023-08-17T12:00:40;19.60;99.90
7206;DHT22;3644;53.480;10.004;2023-08-17T12:03:07;19.70;99.90
7206;DHT22;3644;53.480;10.004;2023-08-17T12:05:32;19.70;99.90
7206;DHT22;3644;53.480;10.004;2023-08-17T12:08:01;19.80;99.90
7206;DHT22;3644;53.480;10.004;2023-08-17T12:10:33;19.60;99.90
7206;DHT22;3644;53.480;10.004;2023-08-17T12:12:59;19.40;99.90
7206;DHT22;3644;53.480;10.004;2023-08-17T12:15:33;19.00;99.90
7206;DHT22;3644;53.480;10.004;2023-08-17T12:18:00;18.90;99.90
7206;DHT22;3644;53.480;10.004;2023-08-17T12:20:25;18.80;99.90
7206;DHT22;3644;53.480;10.004;2023-08-17T12:22:51;18.50;99.90
7206;DHT22;3644;53.480;10.004;2023-08-17T12:25:20;18.50;99.90
7206;DHT22;3644;53.480;10.004;2023-08-17T12:27:47;18.70;99.90
7206;DHT22;3644;53.480;10.004;2023-08-17T12:30:23;18.70;99.90
7206;DHT22;3644;53.480;10.004;2023-08-17T12:32:48;18.70;99.90
7206;DHT22;3644;53.480;10.004;2023-08-17T12:35:14;18.80;99.90
7206;DHT22;3644;53.480;10.004;2023-08-17T12:37:39;19.20;99.90
7206;DHT22;3644;53.480;10.004;2023-08-17T12:40:05;19.40;99.90
7206;DHT22;3644;53.480;10.004;2023-08-17T12:42:33;19.60;99.90
7206;DHT22;3644;53.480;10.004;2023-08-17T12:44:58;19.80;99.90
7206;DHT22;3644;53.480;10.004;2023-08-17T12:47:24;20.00;99.90
7206;DHT22;3644;53.480;10.004;2023-08-17T12:49:49;19.90;99.90
7206;DHT22;3644;53.480;10.004;2023-08-17T12:52:15;19.80;99.90
7206;DHT22;3644;53.480;10.004;2023-08-17T12:54:40;19.70;99.90
7206;DHT22;3644;53.480;10.004;2023-08-17T12:57:06;18.90;99.90
7206;DHT22;3644;53.480;10.004;2023-08-17T12:59:31;18.40;99.90
7206;DHT22;3644;53.480;10.004;2023-08-17T13:01:57;18.40;99.90
7206;DHT22;3644;53.480;10.004;2023-08-17T13:04:22;18.30;99.90
7206;DHT22;3644;53.480;10.004;2023-08-17T13:06:48;18.10;99.90
7206;DHT22;3644;53.480;10.004;2023-08-17T13:09:15;17.90;99.90
7206;DHT22;3644;53.480;10.004;2023-08-17T13:11:42;17.90;99.90
7206;DHT22;3644;53.480;10.004;2023-08-17T13:14:07;18.10;99.90
7206;DHT22;3644;53.480;10.004;2023-08-17T13:16:33;18.30;99.90
7206;DHT22;3644;53.480;10.004;2023-08-17T13:18:58;18.50;99.90
7206;DHT22;3644;53.480;10.004;2023-08-17T13:21:24;18.40;99.90
7206;DHT22;3644;53.480;10.004;2023-08-17T13:23:49;18.40;99.90
7206;DHT22;3644;53.480;10.004;2023-08-17T13:26:15;18.30;99.90
7206;DHT22;3644;53.480;10.004;2023-08-17T13:28:40;18.60;99.90
7206;DHT22;3644;53.480;10.004;2023-08-17T13:31:06;18.80;99.90
7206;DHT22;3644;53.480;10.004;2023-08-17T13:33:31;18.80;99.90
7206;DHT22;3644;53.480;10.004;2023-08-17T13:35:57;19.00;99.90
7206;DHT22;3644;53.480;10.004;2023-08-17T13:38:23;19.30;99.90
7206;DHT22;3644;53.480;10.004;2023-08-17T13:40:48;19.60;99.90
7206;DHT22;3644;53.480;10.004;2023-08-17T13:43:14;19.50;99.90
7206;DHT22;3644;53.480;10.004;2023-08-17T13:45:39;19.70;99.90
7206;DHT22;3644;53.480;10.004;2023-08-17T13:48:06;19.80;99.90
7206;DHT22;3644;53.480;10.004;2023-08-17T13:50:32;20.10;99.90
7206;DHT22;3644;53.480;10.004;2023-08-17T13:52:58;20.40;99.90
7206;DHT22;3644;53.480;10.004;2023-08-17T13:55:26;20.00;99.90
7206;DHT22;3644;53.480;10.004;2023-08-17T13:57:51;19.90;99.90
7206;DHT22;3644;53.480;10.004;2023-08-17T14:00:18;20.00;99.90
7206;DHT22;3644;53.480;10.004;2023-08-17T14:02:43;19.80;99.90
7206;DHT22;3644;53.480;10.004;2023-08-17T14:05:09;19.60;99.90
7206;DHT22;3644;53.480;10.004;2023-08-17T14:07:34;19.40;99.90
7206;DHT22;3644;53.480;10.004;2023-08-17T14:10:00;19.30;99.90
7206;DHT22;3644;53.480;10.004;2023-08-17T14:12:25;19.40;99.90
7206;DHT22;3644;53.480;10.004;2023-08-17T14:14:51;19.10;99.90
7206;DHT22;3644;53.480;10.004;2023-08-17T14:17:16;18.80;99.90
7206;DHT22;3644;53.480;10.004;2023-08-17T14:19:42;18.80;99.90
7206;DHT22;3644;53.480;10.004;2023-08-17T14:22:08;19.10;99.90
7206;DHT22;3644;53.480;10.004;2023-08-17T14:24:34;19.00;99.90
7206;DHT22;3644;53.480;10.004;2023-08-17T14:26:59;18.70;99.90
7206;DHT22;3644;53.480;10.004;2023-08-17T14:29:25;18.90;99.90
7206;DHT22;3644;53.480;10.004;2023-08-17T14:31:50;18.90;99.90
7206;DHT22;3644;53.480;10.004;2023-08-17T14:34:16;19.30;99.90
7206;DHT22;3644;53.480;10.004;2023-08-17T14:36:41;19.40;99.90
7206;DHT22;3644;53.480;10.004;2023-08-17T14:39:07;19.60;99.90
7206;DHT22;3644;53.480;10.004;2023-08-17T14:41:32;19.80;99.90
7206;DHT22;3644;53.480;10.004;2023-08-17T14:43:58;19.30;99.90
7206;DHT22;3644;53.480;10.004;2023-08-17T14:46:25;19.00;99.90
7206;DHT22;3644;53.480;10.004;2023-08-17T14:48:50;18.90;99.90
7206;DHT22;3644;53.480;10.004;2023-08-17T14:51:16;19.00;99.90
7206;DHT22;3644;53.480;10.004;2023-08-17T14:53:41;19.10;99.90
7206;DHT22;3644;53.480;10.004;2023-08-17T14:56:07;19.30;99.90
7206;DHT22;3644;53.480;10.004;2023-08-17T14:58:32;18.90;99.90
7206;DHT22;3644;53.480;10.004;2023-08-17T15:00:58;18.80;99.90
7206;DHT22;3644;53.480;10.004;2023-08-17T15:03:23;19.00;99.90
7206;DHT22;3644;53.480;10.004;2023-08-17T15:05:49;18.90;99.90
7206;DHT22;3644;53.480;10.004;2023-08-17T15:08:15;18.70;99.90
7206;DHT22;3644;53.480;10.004;2023-08-17T15:10:42;18.60;99.90
7206;DHT22;3644;53.480;10.004;2023-08-17T15:13:07;18.50;99.90
7206;DHT22;3644;53.480;10.004;2023-08-17T15:15:33;18.60;99.90
7206;DHT22;3644;53.480;10.004;2023-08-17T15:17:58;18.70;99.90
7206;DHT22;3644;53.480;10.004;2023-08-17T15:20:24;18.80;99.90
7206;DHT22;3644;53.480;10.004;2023-08-17T15:22:49;18.90;99.90
7206;DHT22;3644;53.480;10.004;2023-08-17T15:25:15;18.60;99.90
7206;DHT22;3644;53.480;10.004;2023-08-17T15:27:40;18.70;99.90
7206;DHT22;3644;53.480;10.004;2023-08-17T15:30:06;18.60;99.90
7206;DHT22;3644;53.480;10.004;2023-08-17T15:32:32;18.50;99.90
7206;DHT22;3644;53.480;10.004;2023-08-17T15:34:58;18.40;99.90
7206;DHT22;3644;53.480;10.004;2023-08-17T15:37:23;18.60;99.90
7206;DHT22;3644;53.480;10.004;2023-08-17T15:39:50;18.80;99.90
7206;DHT22;3644;53.480;10.004;2023-08-17T15:42:15;18.60;99.90